createdAt,value
2023-04-28T00:01:55.066Z,4.93
2023-04-28T00:04:23.101Z,4.32
2023-04-28T00:06:51.126Z,5.70
2023-04-28T00:09:18.784Z,2.97
2023-04-28T00:11:46.795Z,3.42
2023-04-28T00:14:14.785Z,4.72
2023-04-28T00:16:43.041Z,3.38
2023-04-28T00:19:10.726Z,5.68
2023-04-28T00:21:38.265Z,3.53
2023-04-28T00:24:05.934Z,4.43
2023-04-28T00:26:33.498Z,4.55
2023-04-28T00:29:01.139Z,2.30
2023-04-28T00:31:28.686Z,4.18
2023-04-28T00:33:56.339Z,3.53
2023-04-28T00:36:23.894Z,2.95
2023-04-28T00:38:51.708Z,5.10
2023-04-28T00:41:19.337Z,6.35
2023-04-28T00:43:50.804Z,4.10
2023-04-28T00:48:46.280Z,3.58
2023-04-28T00:51:13.896Z,1.90
2023-04-28T00:53:41.670Z,1.75
2023-04-28T00:56:09.698Z,3.10
2023-04-28T00:58:38.006Z,2.28
2023-04-28T01:01:06.135Z,2.00
2023-04-28T01:03:37.976Z,4.75
2023-04-28T01:06:06.586Z,2.22
2023-04-28T01:08:36.026Z,5.35
2023-04-28T01:11:07.020Z,3.42
2023-04-28T01:13:52.755Z,2.47
2023-04-28T01:16:20.597Z,2.92
2023-04-28T01:18:48.814Z,7.60
2023-04-28T01:21:26.054Z,2.28
2023-04-28T01:23:53.736Z,2.50
2023-04-28T01:26:21.641Z,3.28
2023-04-28T01:28:49.167Z,2.50
2023-04-28T01:31:16.745Z,2.65
2023-04-28T01:33:44.433Z,2.40
2023-04-28T01:36:12.020Z,2.97
2023-04-28T01:38:39.550Z,3.08
2023-04-28T01:41:07.363Z,2.42
2023-04-28T01:43:34.905Z,2.65
2023-04-28T01:46:02.515Z,4.03
2023-04-28T01:48:31.673Z,2.67
2023-04-28T01:50:59.248Z,2.97
2023-04-28T01:53:26.820Z,3.65
2023-04-28T01:55:55.246Z,5.47
2023-04-28T01:58:22.977Z,2.20
2023-04-28T02:00:50.984Z,3.03
2023-04-28T02:03:20.702Z,2.22
2023-04-28T02:05:48.388Z,2.92
2023-04-28T02:08:16.487Z,3.50
2023-04-28T02:10:45.066Z,4.70
2023-04-28T02:13:12.590Z,2.25
2023-04-28T02:15:40.749Z,2.03
2023-04-28T02:18:08.426Z,3.00
2023-04-28T02:20:40.765Z,2.88
2023-04-28T02:23:09.550Z,2.10
2023-04-28T02:25:37.076Z,2.47
2023-04-28T02:28:04.730Z,3.28
2023-04-28T02:30:35.373Z,2.97
2023-04-28T02:33:02.971Z,2.63
2023-04-28T02:35:30.694Z,1.88
2023-04-28T02:37:58.883Z,2.25
2023-04-28T02:40:26.380Z,1.95
2023-04-28T02:42:53.954Z,2.10
2023-04-28T02:45:21.497Z,2.72
2023-04-28T02:47:49.288Z,2.67
2023-04-28T02:50:17.531Z,5.15
2023-04-28T02:52:47.043Z,3.92
2023-04-28T02:55:23.671Z,4.20
2023-04-28T02:57:52.041Z,2.25
2023-04-28T03:00:19.784Z,6.35
2023-04-28T03:02:49.717Z,2.63
2023-04-28T03:05:17.357Z,2.55
2023-04-28T03:07:45.093Z,2.35
2023-04-28T03:10:12.739Z,2.42
2023-04-28T03:12:40.339Z,3.05
2023-04-28T03:15:08.872Z,2.45
2023-04-28T03:17:41.551Z,2.42
2023-04-28T03:20:10.020Z,1.83
2023-04-28T03:22:37.569Z,3.92
2023-04-28T03:25:05.779Z,3.08
2023-04-28T03:27:37.438Z,5.07
2023-04-28T03:30:06.983Z,2.63
2023-04-28T03:32:34.566Z,3.47
2023-04-28T03:35:02.334Z,2.60
2023-04-28T03:37:29.915Z,2.47
2023-04-28T03:39:57.462Z,2.20
2023-04-28T03:42:25.074Z,3.03
2023-04-28T03:45:06.962Z,4.68
2023-04-28T03:47:34.542Z,4.53
2023-04-28T03:50:02.266Z,2.78
2023-04-28T03:52:30.059Z,4.55
2023-04-28T03:54:57.581Z,2.70
2023-04-28T03:57:25.212Z,2.42
2023-04-28T03:59:52.749Z,2.78
2023-04-28T04:02:20.453Z,1.95
2023-04-28T04:04:48.718Z,3.45
2023-04-28T04:07:16.725Z,3.33
2023-04-28T04:09:44.316Z,2.15
2023-04-28T04:12:12.107Z,2.03
2023-04-28T04:14:39.781Z,5.03
2023-04-28T04:17:07.712Z,2.95
2023-04-28T04:19:35.345Z,2.35
2023-04-28T04:22:02.904Z,3.03
2023-04-28T04:24:31.075Z,3.08
2023-04-28T04:26:58.598Z,2.10
2023-04-28T04:29:32.456Z,2.80
2023-04-28T04:32:02.856Z,3.15
2023-04-28T04:34:30.474Z,2.63
2023-04-28T04:36:58.300Z,4.13
2023-04-28T04:39:26.179Z,28.67
2023-04-28T04:41:53.891Z,2.78
2023-04-28T04:44:33.812Z,2.78
2023-04-28T04:47:02.754Z,3.35
2023-04-28T04:49:31.896Z,3.33
2023-04-28T04:51:59.445Z,4.30
2023-04-28T04:54:27.398Z,5.70
2023-04-28T04:56:55.123Z,2.40
2023-04-28T04:59:38.439Z,2.78
2023-04-28T05:02:10.486Z,5.15
2023-04-28T05:04:38.497Z,2.63
2023-04-28T05:07:06.671Z,3.22
2023-04-28T05:09:34.447Z,2.88
2023-04-28T05:12:02.043Z,6.40
2023-04-28T05:14:30.370Z,2.22
2023-04-28T05:16:58.632Z,2.63
2023-04-28T05:19:31.496Z,4.25
2023-04-28T05:22:00.816Z,2.63
2023-04-28T05:24:28.358Z,2.97
2023-04-28T05:26:58.869Z,3.75
2023-04-28T05:29:26.396Z,2.95
2023-04-28T05:31:54.534Z,2.10
2023-04-28T05:34:23.922Z,2.92
2023-04-28T05:36:52.848Z,4.13
2023-04-28T05:39:23.957Z,3.22
2023-04-28T05:41:51.734Z,2.25
2023-04-28T05:44:19.223Z,3.67
2023-04-28T05:46:47.308Z,2.50
2023-04-28T05:49:14.947Z,2.70
2023-04-28T05:51:42.505Z,4.85
2023-04-28T05:54:10.084Z,3.72
2023-04-28T05:56:43.100Z,3.33
2023-04-28T05:59:10.751Z,3.00
2023-04-28T06:01:38.704Z,4.25
2023-04-28T06:04:06.979Z,5.00
2023-04-28T06:06:34.751Z,3.10
2023-04-28T06:09:03.025Z,5.82
2023-04-28T06:11:31.441Z,2.40
2023-04-28T06:13:58.961Z,2.58
2023-04-28T06:16:26.789Z,9.10
2023-04-28T06:18:54.605Z,10.57
2023-04-28T06:21:22.357Z,4.95
2023-04-28T06:23:49.873Z,7.78
2023-04-28T06:26:18.382Z,3.13
2023-04-28T06:28:46.334Z,2.90
2023-04-28T06:31:13.870Z,3.72
2023-04-28T06:33:41.426Z,3.72
2023-04-28T06:36:09.513Z,4.32
2023-04-28T06:38:37.436Z,2.13
2023-04-28T06:41:05.216Z,5.20
2023-04-28T06:43:36.293Z,2.85
2023-04-28T06:46:11.377Z,2.00
2023-04-28T06:48:39.172Z,4.03
2023-04-28T06:51:06.668Z,4.78
2023-04-28T06:53:36.071Z,1.70
2023-04-28T06:56:04.105Z,1.33
2023-04-28T06:58:31.693Z,1.50
2023-04-28T07:00:59.257Z,1.85
2023-04-28T07:03:27.966Z,2.08
2023-04-28T07:05:55.555Z,1.35
2023-04-28T07:08:23.071Z,1.90
2023-04-28T07:10:50.719Z,1.90
2023-04-28T07:13:18.222Z,1.13
2023-04-28T07:15:45.737Z,2.17
2023-04-28T07:18:13.264Z,3.85
2023-04-28T07:20:40.847Z,16.25
2023-04-28T07:23:08.393Z,13.38
2023-04-28T07:25:36.273Z,4.53
2023-04-28T07:28:04.362Z,1.67
2023-04-28T07:30:31.944Z,4.70
2023-04-28T07:33:01.604Z,4.90
2023-04-28T07:35:29.368Z,4.65
2023-04-28T07:37:57.905Z,2.03
2023-04-28T07:40:25.447Z,9.48
2023-04-28T07:42:52.998Z,2.47
2023-04-28T07:45:20.860Z,1.42
2023-04-28T07:47:48.440Z,1.98
2023-04-28T07:50:17.179Z,1.23
2023-04-28T07:52:44.766Z,3.30
2023-04-28T07:55:12.286Z,2.25
2023-04-28T07:57:40.928Z,1.90
2023-04-28T08:00:09.612Z,1.60
2023-04-28T08:02:40.535Z,2.55
2023-04-28T08:05:09.455Z,2.42
2023-04-28T08:07:37.735Z,1.88
2023-04-28T08:10:05.826Z,2.90
2023-04-28T08:12:33.371Z,4.65
2023-04-28T08:15:01.571Z,3.97
2023-04-28T08:17:29.154Z,1.77
2023-04-28T08:19:56.750Z,2.72
2023-04-28T08:22:24.241Z,1.77
2023-04-28T08:24:51.976Z,3.72
2023-04-28T08:27:19.534Z,2.20
2023-04-28T08:29:47.136Z,4.53
2023-04-28T08:32:14.706Z,2.85
2023-04-28T08:34:42.475Z,5.10
2023-04-28T08:37:10.034Z,4.55
2023-04-28T08:39:37.563Z,3.85
2023-04-28T08:42:05.628Z,2.17
2023-04-28T08:44:38.227Z,2.65
2023-04-28T08:47:11.211Z,1.92
2023-04-28T08:49:39.287Z,3.75
2023-04-28T08:52:11.263Z,3.30
2023-04-28T08:54:39.671Z,1.95
2023-04-28T08:57:09.331Z,3.42
2023-04-28T08:59:46.225Z,2.17
2023-04-28T09:02:13.912Z,2.33
2023-04-28T09:04:41.594Z,3.35
2023-04-28T09:07:12.940Z,2.70
2023-04-28T09:09:41.085Z,3.22
2023-04-28T09:12:09.019Z,2.67
2023-04-28T09:14:37.761Z,4.13
2023-04-28T09:17:12.824Z,2.17
2023-04-28T09:19:42.764Z,2.53
2023-04-28T09:22:24.864Z,1.75
2023-04-28T09:24:55.028Z,2.85
2023-04-28T09:27:27.088Z,1.85
2023-04-28T09:29:54.998Z,2.45
2023-04-28T09:32:23.348Z,2.00
2023-04-28T09:34:56.432Z,1.73
2023-04-28T09:37:30.528Z,1.38
2023-04-28T09:40:18.435Z,2.92
2023-04-28T09:42:46.652Z,2.13
2023-04-28T09:45:16.184Z,1.80
2023-04-28T09:47:46.072Z,1.95
2023-04-28T09:50:14.551Z,2.20
2023-04-28T09:52:42.777Z,1.40
2023-04-28T09:55:10.999Z,2.10
2023-04-28T09:57:39.067Z,1.92
2023-04-28T10:00:08.873Z,1.55
2023-04-28T10:05:09.640Z,2.22
2023-04-28T10:07:37.930Z,1.05
2023-04-28T10:10:06.106Z,4.05
2023-04-28T10:12:33.726Z,2.38
2023-04-28T10:15:01.818Z,1.98
2023-04-28T10:17:29.885Z,4.20
2023-04-28T10:19:58.441Z,3.42
2023-04-28T10:22:38.325Z,1.65
2023-04-28T10:25:05.882Z,2.05
2023-04-28T10:27:34.882Z,1.77
2023-04-28T10:32:46.330Z,3.05
2023-04-28T10:35:23.406Z,1.23
2023-04-28T10:38:08.297Z,1.65
2023-04-28T10:40:46.030Z,2.40
2023-04-28T10:43:33.804Z,3.13
2023-04-28T10:46:06.347Z,2.35
2023-04-28T10:48:34.289Z,3.92
2023-04-28T10:51:09.647Z,1.95
2023-04-28T10:53:47.091Z,1.15
2023-04-28T10:56:16.705Z,3.95
2023-04-28T10:58:46.256Z,2.42
2023-04-28T11:01:20.440Z,1.98
2023-04-28T11:03:48.096Z,3.28
2023-04-28T11:06:26.113Z,1.80
2023-04-28T11:08:55.581Z,3.30
2023-04-28T11:11:25.621Z,2.72
2023-04-28T11:13:54.266Z,3.20
2023-04-28T11:16:23.223Z,3.67
2023-04-28T11:18:54.408Z,2.63
2023-04-28T11:21:23.768Z,4.60
2023-04-28T11:23:51.427Z,2.17
2023-04-28T11:26:19.898Z,3.72
2023-04-28T11:28:51.278Z,1.80
2023-04-28T11:31:20.686Z,1.67
2023-04-28T11:33:50.762Z,4.40
2023-04-28T11:36:25.371Z,1.45
2023-04-28T11:38:52.920Z,2.78
2023-04-28T11:41:20.518Z,1.50
2023-04-28T11:43:48.104Z,1.35
2023-04-28T11:46:22.380Z,1.60
2023-04-28T11:48:51.224Z,2.13
2023-04-28T11:51:32.301Z,1.50
2023-04-28T11:54:00.870Z,2.37
2023-04-28T11:56:28.918Z,1.77
2023-04-28T11:59:10.396Z,3.65
2023-04-28T12:01:47.085Z,2.92
2023-04-28T12:04:14.955Z,2.88
2023-04-28T12:06:42.673Z,1.73
2023-04-28T12:09:17.189Z,1.08
2023-04-28T12:12:22.954Z,1.55
2023-04-28T12:14:54.951Z,3.10
2023-04-28T12:17:26.651Z,1.30
2023-04-28T12:22:21.848Z,1.17
2023-04-28T12:25:08.975Z,1.35
2023-04-28T12:27:39.196Z,2.30
2023-04-28T12:30:07.271Z,2.05
2023-04-28T12:32:39.701Z,1.88
2023-04-28T12:35:07.770Z,3.20
2023-04-28T12:37:35.381Z,1.83
2023-04-28T12:40:04.548Z,1.52
2023-04-28T12:42:32.073Z,1.33
2023-04-28T12:44:59.632Z,2.58
2023-04-28T12:47:27.158Z,1.00
2023-04-28T12:49:54.801Z,1.10
2023-04-28T12:52:22.579Z,1.73
2023-04-28T12:54:50.117Z,1.48
2023-04-28T12:57:18.331Z,1.95
2023-04-28T12:59:49.024Z,1.65
2023-04-28T13:02:16.614Z,2.05
2023-04-28T13:04:46.064Z,3.00
2023-04-28T13:07:14.092Z,2.33
2023-04-28T13:09:42.964Z,2.25
2023-04-28T13:12:11.737Z,2.08
2023-04-28T13:14:39.319Z,2.17
2023-04-28T13:17:06.916Z,1.33
2023-04-28T13:19:34.983Z,1.35
2023-04-28T13:22:05.155Z,2.10
2023-04-28T13:24:33.474Z,1.58
2023-04-28T13:27:02.496Z,1.30
2023-04-28T13:29:29.984Z,1.52
2023-04-28T13:31:57.565Z,1.38
2023-04-28T13:34:25.145Z,0.93
2023-04-28T13:36:53.968Z,0.95
2023-04-28T13:39:22.042Z,3.53
2023-04-28T13:41:50.462Z,1.85
2023-04-28T13:44:18.069Z,0.65
2023-04-28T13:46:46.046Z,1.63
2023-04-28T13:49:13.973Z,1.33
2023-04-28T13:51:41.596Z,0.70
2023-04-28T13:54:11.117Z,0.85
2023-04-28T13:56:38.710Z,2.10
2023-04-28T13:59:06.456Z,0.77
2023-04-28T14:01:34.068Z,0.63
2023-04-28T14:04:02.206Z,0.65
2023-04-28T14:06:29.994Z,0.70
2023-04-28T14:08:57.514Z,0.60
2023-04-28T14:11:25.017Z,0.30
2023-04-28T14:13:52.650Z,0.73
2023-04-28T14:16:20.194Z,0.57
2023-04-28T14:18:47.778Z,0.50
2023-04-28T14:21:15.303Z,0.60
2023-04-28T14:23:42.849Z,0.50
2023-04-28T14:26:10.473Z,0.60
2023-04-28T14:28:37.996Z,0.93
2023-04-28T14:31:09.084Z,0.40
2023-04-28T14:33:37.055Z,0.70
2023-04-28T14:36:05.165Z,1.05
2023-04-28T14:38:32.869Z,0.43
2023-04-28T14:41:00.525Z,0.32
2023-04-28T14:43:28.068Z,0.95
2023-04-28T14:45:55.690Z,0.40
2023-04-28T14:48:23.561Z,0.77
2023-04-28T14:50:51.551Z,0.55
2023-04-28T14:53:19.104Z,0.88
2023-04-28T14:55:46.622Z,0.40
2023-04-28T14:58:14.199Z,0.57
2023-04-28T15:00:41.811Z,2.53
2023-04-28T15:03:09.489Z,3.00
2023-04-28T15:05:37.400Z,0.55
2023-04-28T15:08:05.089Z,1.08
2023-04-28T15:10:37.601Z,0.43
2023-04-28T15:13:05.298Z,1.40
2023-04-28T15:15:32.854Z,1.48
2023-04-28T15:18:01.044Z,0.60
2023-04-28T15:20:30.331Z,0.70
2023-04-28T15:22:58.688Z,1.38
2023-04-28T15:25:26.759Z,0.70
2023-04-28T15:27:54.380Z,0.70
2023-04-28T15:30:22.347Z,1.40
2023-04-28T15:32:50.450Z,1.52
2023-04-28T15:35:18.087Z,1.95
2023-04-28T15:37:51.635Z,0.98
2023-04-28T15:40:19.964Z,0.85
2023-04-28T15:42:52.935Z,0.95
2023-04-28T15:45:21.397Z,0.50
2023-04-28T15:47:50.429Z,0.85
2023-04-28T15:50:20.129Z,4.95
2023-04-28T15:52:49.539Z,3.55
2023-04-28T15:55:18.360Z,5.07
2023-04-28T15:57:46.930Z,1.75
2023-04-28T16:00:15.625Z,1.48
2023-04-28T16:02:43.615Z,2.30
2023-04-28T16:05:12.097Z,2.45
2023-04-28T16:07:40.853Z,1.98
2023-04-28T16:10:09.777Z,1.77
2023-04-28T16:12:38.446Z,3.20
2023-04-28T16:15:09.388Z,2.05
2023-04-28T16:17:38.400Z,1.43
2023-04-28T16:20:07.432Z,2.65
2023-04-28T16:22:35.773Z,2.55
2023-04-28T16:25:04.032Z,3.45
2023-04-28T16:27:31.963Z,3.85
2023-04-28T16:29:59.880Z,2.30
2023-04-28T16:32:28.873Z,2.13
2023-04-28T16:34:59.468Z,3.05
2023-04-28T16:37:27.344Z,2.90
2023-04-28T16:39:54.946Z,3.30
2023-04-28T16:42:22.584Z,3.58
2023-04-28T16:44:52.628Z,2.58
2023-04-28T16:47:20.902Z,2.60
2023-04-28T16:49:48.844Z,2.45
2023-04-28T16:52:16.880Z,4.53
2023-04-28T16:54:44.867Z,7.75
2023-04-28T16:57:12.385Z,5.35
2023-04-28T16:59:39.942Z,4.72
2023-04-28T17:02:07.586Z,5.65
2023-04-28T17:04:36.449Z,7.88
2023-04-28T17:07:05.197Z,0.98
2023-04-28T17:09:33.259Z,8.80
2023-04-28T17:12:01.119Z,9.93
2023-04-28T17:14:28.750Z,2.72
2023-04-28T17:16:56.534Z,3.03
2023-04-28T17:19:24.236Z,6.45
2023-04-28T17:21:52.740Z,4.88
2023-04-28T17:24:20.354Z,3.33
2023-04-28T17:26:47.914Z,3.70
2023-04-28T17:29:16.216Z,5.80
2023-04-28T17:31:43.825Z,4.18
2023-04-28T17:34:11.365Z,3.97
2023-04-28T17:36:39.167Z,2.92
2023-04-28T17:39:07.206Z,4.45
2023-04-28T17:41:35.201Z,3.08
2023-04-28T17:44:02.843Z,4.32
2023-04-28T17:46:30.454Z,4.78
2023-04-28T17:48:59.549Z,4.18
2023-04-28T17:51:27.769Z,5.95
2023-04-28T17:53:56.764Z,3.08
2023-04-28T17:56:24.330Z,5.95
2023-04-28T17:58:52.362Z,1.90
2023-04-28T18:01:20.003Z,3.65
2023-04-28T18:03:48.096Z,3.13
2023-04-28T18:06:16.313Z,5.05
2023-04-28T18:08:43.840Z,3.25
2023-04-28T18:11:12.147Z,3.05
2023-04-28T18:13:39.651Z,3.25
2023-04-28T18:16:10.656Z,2.53
2023-04-28T18:18:38.250Z,2.63
2023-04-28T18:21:05.809Z,4.47
2023-04-28T18:23:33.893Z,4.82
2023-04-28T18:26:01.720Z,5.18
2023-04-28T18:28:29.474Z,5.88
2023-04-28T18:30:57.270Z,7.07
2023-04-28T18:33:28.334Z,5.05
2023-04-28T18:36:04.581Z,4.15
2023-04-28T18:38:34.463Z,5.03
2023-04-28T18:41:02.331Z,4.18
2023-04-28T18:43:30.026Z,5.10
2023-04-28T18:45:58.352Z,3.85
2023-04-28T18:48:25.975Z,5.97
2023-04-28T18:50:54.017Z,4.75
2023-04-28T18:53:21.639Z,3.50
2023-04-28T18:55:49.211Z,3.58
2023-04-28T18:58:16.803Z,3.75
2023-04-28T19:00:45.606Z,1.75
2023-04-28T19:03:13.843Z,4.35
2023-04-28T19:05:44.777Z,1.95
2023-04-28T19:08:12.946Z,2.15
2023-04-28T19:10:41.131Z,3.55
2023-04-28T19:13:08.895Z,3.78
2023-04-28T19:15:36.473Z,2.88
2023-04-28T19:18:05.172Z,6.05
2023-04-28T19:20:32.762Z,3.70
2023-04-28T19:23:03.680Z,2.55
2023-04-28T19:25:33.468Z,2.10
2023-04-28T19:28:01.033Z,6.07
2023-04-28T19:30:28.640Z,3.92
2023-04-28T19:32:56.247Z,3.08
2023-04-28T19:35:24.058Z,3.00
2023-04-28T19:37:51.716Z,3.15
2023-04-28T19:40:19.334Z,4.82
2023-04-28T19:42:46.824Z,2.50
2023-04-28T19:45:16.855Z,8.77
2023-04-28T19:47:44.728Z,6.63
2023-04-28T19:50:12.350Z,2.72
2023-04-28T19:52:39.898Z,3.75
2023-04-28T19:55:08.064Z,9.27
2023-04-28T19:57:35.627Z,10.10
2023-04-28T20:00:03.454Z,7.57
2023-04-28T20:02:35.631Z,4.85
2023-04-28T20:05:03.803Z,4.30
2023-04-28T20:07:31.359Z,6.53
2023-04-28T20:09:59.652Z,5.88
2023-04-28T20:12:27.302Z,4.70
2023-04-28T20:14:54.908Z,8.52
2023-04-28T20:17:22.538Z,4.57
2023-04-28T20:19:51.025Z,3.95
2023-04-28T20:22:18.794Z,6.32
2023-04-28T20:24:46.298Z,4.88
2023-04-28T20:27:14.014Z,17.58
2023-04-28T20:29:41.709Z,44.10
2023-04-28T20:32:10.390Z,57.90
2023-04-28T20:34:38.399Z,42.40
2023-04-28T20:37:08.867Z,31.90
2023-04-28T20:39:36.481Z,15.25
2023-04-28T20:42:04.202Z,10.57
2023-04-28T20:44:32.346Z,12.60
2023-04-28T20:47:01.637Z,5.30
2023-04-28T20:49:29.252Z,5.28
2023-04-28T20:52:03.795Z,4.32
2023-04-28T20:54:32.723Z,3.55
2023-04-28T20:57:00.652Z,3.55
2023-04-28T20:59:29.970Z,4.00
2023-04-28T21:01:58.756Z,4.30
2023-04-28T21:04:26.604Z,2.78
2023-04-28T21:06:54.184Z,3.08
2023-04-28T21:09:24.706Z,3.00
2023-04-28T21:11:52.228Z,2.65
2023-04-28T21:14:20.123Z,2.33
2023-04-28T21:16:47.766Z,3.67
2023-04-28T21:19:15.383Z,1.77
2023-04-28T21:21:42.944Z,4.07
2023-04-28T21:24:10.511Z,2.00
2023-04-28T21:26:38.096Z,1.98
2023-04-28T21:29:05.654Z,2.55
2023-04-28T21:31:33.174Z,4.97
2023-04-28T21:34:00.686Z,2.47
2023-04-28T21:36:28.234Z,2.15
2023-04-28T21:38:55.866Z,3.22
2023-04-28T21:41:25.032Z,1.80
2023-04-28T21:43:52.920Z,2.17
2023-04-28T21:46:20.597Z,2.75
2023-04-28T21:48:48.413Z,3.00
2023-04-28T21:51:16.537Z,2.88
2023-04-28T21:53:44.154Z,2.55
2023-04-28T21:56:11.712Z,2.10
2023-04-28T21:58:39.363Z,2.00
2023-04-28T22:01:07.038Z,2.92
2023-04-28T22:03:36.198Z,1.73
2023-04-28T22:06:03.993Z,2.25
2023-04-28T22:08:31.843Z,2.88
2023-04-28T22:10:59.476Z,0.88
2023-04-28T22:13:27.237Z,1.65
2023-04-28T22:15:56.080Z,1.20
2023-04-28T22:18:23.654Z,1.85
2023-04-28T22:20:51.270Z,0.88
2023-04-28T22:23:19.049Z,2.92
2023-04-28T22:25:46.640Z,1.25
2023-04-28T22:28:14.323Z,1.73
2023-04-28T22:30:42.003Z,1.88
2023-04-28T22:33:10.167Z,2.05
2023-04-28T22:35:37.855Z,1.55
2023-04-28T22:38:05.383Z,0.70
2023-04-28T22:40:33.220Z,0.90
2023-04-28T22:43:00.776Z,0.73
2023-04-28T22:45:28.687Z,0.85
2023-04-28T22:47:56.792Z,0.80
2023-04-28T22:50:25.101Z,1.45
2023-04-28T22:52:52.616Z,2.45
2023-04-28T22:55:20.157Z,0.82
2023-04-28T22:57:47.692Z,0.80
2023-04-28T23:00:16.009Z,0.80
2023-04-28T23:02:44.942Z,2.47
2023-04-28T23:05:12.585Z,0.75
2023-04-28T23:07:40.404Z,0.80
2023-04-28T23:10:08.352Z,1.95
2023-04-28T23:12:35.986Z,3.50
2023-04-28T23:15:03.572Z,0.70
2023-04-28T23:17:31.133Z,0.80
2023-04-28T23:19:58.655Z,2.40
2023-04-28T23:22:26.174Z,0.70
2023-04-28T23:24:53.752Z,2.38
2023-04-28T23:27:21.339Z,0.70
2023-04-28T23:29:49.198Z,1.15
2023-04-28T23:32:16.799Z,3.17
2023-04-28T23:34:44.299Z,0.70
2023-04-28T23:37:12.004Z,1.50
2023-04-28T23:39:39.550Z,1.25
2023-04-28T23:42:07.323Z,1.58
2023-04-28T23:44:35.165Z,2.63
2023-04-28T23:47:02.678Z,1.73
2023-04-28T23:49:30.277Z,1.13
2023-04-28T23:51:58.294Z,1.42
2023-04-28T23:54:25.781Z,1.00
2023-04-28T23:56:53.283Z,1.65
2023-04-28T23:59:20.816Z,1.35
